sensor_id;sensor_type;location;lat;lon;timestamp;P1;durP1;ratioP1;P2;durP2;ratioP2
57299;SDS011;43148;50.966;18.198;2023-11-21T00:04:52;11.00;;;4.70;;
57299;SDS011;43148;50.966;18.198;2023-11-21T00:14:38;3.90;;;3.60;;
57299;SDS011;43148;50.966;18.198;2023-11-21T00:24:23;1.40;;;1.40;;
57299;SDS011;43148;50.966;18.198;2023-11-21T00:34:11;3.60;;;2.70;;
57299;SDS011;43148;50.966;18.198;2023-11-21T00:43:53;4.40;;;4.10;;
57299;SDS011;43148;50.966;18.198;2023-11-21T01:00:55;2.30;;;2.20;;
57299;SDS011;43148;50.966;18.198;2023-11-21T01:10:37;1.80;;;1.70;;
57299;SDS011;43148;50.966;18.198;2023-11-21T01:20:23;3.50;;;3.30;;
57299;SDS011;43148;50.966;18.198;2023-11-21T01:30:07;3.30;;;3.10;;
57299;SDS011;43148;50.966;18.198;2023-11-21T01:39:53;5.30;;;5.10;;
57299;SDS011;43148;50.966;18.198;2023-11-21T01:49:37;5.40;;;5.20;;
57299;SDS011;43148;50.966;18.198;2023-11-21T01:59:24;1.70;;;1.70;;
57299;SDS011;43148;50.966;18.198;2023-11-21T02:09:08;3.00;;;2.80;;
57299;SDS011;43148;50.966;18.198;2023-11-21T02:18:52;2.60;;;2.40;;
57299;SDS011;43148;50.966;18.198;2023-11-21T02:28:37;1.70;;;1.70;;
57299;SDS011;43148;50.966;18.198;2023-11-21T02:38:25;2.10;;;2.00;;
57299;SDS011;43148;50.966;18.198;2023-11-21T02:48:07;2.30;;;2.20;;
57299;SDS011;43148;50.966;18.198;2023-11-21T03:05:09;5.00;;;4.70;;
57299;SDS011;43148;50.966;18.198;2023-11-21T03:14:54;4.40;;;4.10;;
57299;SDS011;43148;50.966;18.198;2023-11-21T03:24:37;8.90;;;8.10;;
57299;SDS011;43148;50.966;18.198;2023-11-21T03:34:27;4.80;;;3.80;;
57299;SDS011;43148;50.966;18.198;2023-11-21T03:44:13;2.30;;;2.20;;
57299;SDS011;43148;50.966;18.198;2023-11-21T03:53:55;4.00;;;3.80;;
57299;SDS011;43148;50.966;18.198;2023-11-21T04:03:49;2.90;;;2.80;;
57299;SDS011;43148;50.966;18.198;2023-11-21T04:13:37;3.20;;;3.00;;
57299;SDS011;43148;50.966;18.198;2023-11-21T04:23:21;6.30;;;5.70;;
57299;SDS011;43148;50.966;18.198;2023-11-21T04:33:05;4.20;;;3.90;;
57299;SDS011;43148;50.966;18.198;2023-11-21T04:42:48;4.10;;;3.80;;
57299;SDS011;43148;50.966;18.198;2023-11-21T04:52:31;3.60;;;3.30;;
57299;SDS011;43148;50.966;18.198;2023-11-21T05:02:15;3.50;;;3.20;;
57299;SDS011;43148;50.966;18.198;2023-11-21T05:11:59;3.30;;;3.10;;
57299;SDS011;43148;50.966;18.198;2023-11-21T05:21:42;2.80;;;2.70;;
57299;SDS011;43148;50.966;18.198;2023-11-21T05:31:28;2.30;;;2.20;;
57299;SDS011;43148;50.966;18.198;2023-11-21T05:41:11;1.80;;;1.70;;
57299;SDS011;43148;50.966;18.198;2023-11-21T05:50:58;3.10;;;2.90;;
57299;SDS011;43148;50.966;18.198;2023-11-21T06:00:40;4.60;;;4.30;;
57299;SDS011;43148;50.966;18.198;2023-11-21T06:10:26;4.60;;;4.30;;
57299;SDS011;43148;50.966;18.198;2023-11-21T06:20:17;1.10;;;1.10;;
57299;SDS011;43148;50.966;18.198;2023-11-21T06:37:40;3.30;;;3.20;;
57299;SDS011;43148;50.966;18.198;2023-11-21T06:47:24;5.30;;;3.10;;
57299;SDS011;43148;50.966;18.198;2023-11-21T06:57:12;3.60;;;3.40;;
57299;SDS011;43148;50.966;18.198;2023-11-21T07:07:09;4.70;;;4.20;;
57299;SDS011;43148;50.966;18.198;2023-11-21T07:16:59;3.50;;;3.30;;
57299;SDS011;43148;50.966;18.198;2023-11-21T07:26:42;2.10;;;2.00;;
57299;SDS011;43148;50.966;18.198;2023-11-21T07:36:35;6.30;;;5.80;;
57299;SDS011;43148;50.966;18.198;2023-11-21T07:46:21;8.00;;;7.40;;
57299;SDS011;43148;50.966;18.198;2023-11-21T07:56:16;9.60;;;8.10;;
57299;SDS011;43148;50.966;18.198;2023-11-21T08:06:02;25.80;;;14.60;;
57299;SDS011;43148;50.966;18.198;2023-11-21T08:15:55;28.00;;;24.30;;
57299;SDS011;43148;50.966;18.198;2023-11-21T08:25:43;22.70;;;20.50;;
57299;SDS011;43148;50.966;18.198;2023-11-21T08:35:31;7.80;;;7.20;;
57299;SDS011;43148;50.966;18.198;2023-11-21T08:45:17;53.20;;;19.80;;
57299;SDS011;43148;50.966;18.198;2023-11-21T08:55:03;8.50;;;8.00;;
57299;SDS011;43148;50.966;18.198;2023-11-21T09:04:53;32.80;;;13.10;;
57299;SDS011;43148;50.966;18.198;2023-11-21T09:14:43;6.20;;;5.80;;
57299;SDS011;43148;50.966;18.198;2023-11-21T09:31:57;4.90;;;4.60;;
57299;SDS011;43148;50.966;18.198;2023-11-21T09:41:52;4.10;;;3.90;;
57299;SDS011;43148;50.966;18.198;2023-11-21T09:51:50;5.00;;;4.80;;
57299;SDS011;43148;50.966;18.198;2023-11-21T10:01:41;4.60;;;4.30;;
57299;SDS011;43148;50.966;18.198;2023-11-21T10:11:29;116.80;;;29.00;;
57299;SDS011;43148;50.966;18.198;2023-11-21T10:21:37;15.80;;;14.50;;
57299;SDS011;43148;50.966;18.198;2023-11-21T10:31:23;15.70;;;14.30;;
57299;SDS011;43148;50.966;18.198;2023-11-21T10:41:18;19.10;;;17.40;;
57299;SDS011;43148;50.966;18.198;2023-11-21T10:58:37;8.00;;;7.40;;
57299;SDS011;43148;50.966;18.198;2023-11-21T11:15:57;18.20;;;16.50;;
57299;SDS011;43148;50.966;18.198;2023-11-21T11:26:52;15.10;;;13.60;;
57299;SDS011;43148;50.966;18.198;2023-11-21T11:37:07;13.90;;;12.80;;
57299;SDS011;43148;50.966;18.198;2023-11-21T11:57:24;4.40;;;4.20;;
57299;SDS011;43148;50.966;18.198;2023-11-21T12:15:04;61.10;;;20.20;;
57299;SDS011;43148;50.966;18.198;2023-11-21T12:24:57;17.30;;;15.50;;
57299;SDS011;43148;50.966;18.198;2023-11-21T12:34:43;11.40;;;10.60;;
57299;SDS011;43148;50.966;18.198;2023-11-21T12:44:25;15.70;;;14.40;;
57299;SDS011;43148;50.966;18.198;2023-11-21T12:54:12;13.60;;;11.40;;
57299;SDS011;43148;50.966;18.198;2023-11-21T13:03:57;13.60;;;10.80;;
57299;SDS011;43148;50.966;18.198;2023-11-21T13:13:42;19.00;;;17.10;;
57299;SDS011;43148;50.966;18.198;2023-11-21T13:23:40;9.90;;;9.10;;
57299;SDS011;43148;50.966;18.198;2023-11-21T13:33:37;11.60;;;10.90;;
57299;SDS011;43148;50.966;18.198;2023-11-21T13:43:26;7.30;;;6.90;;
57299;SDS011;43148;50.966;18.198;2023-11-21T13:53:33;6.80;;;6.40;;
57299;SDS011;43148;50.966;18.198;2023-11-21T14:03:57;4.40;;;4.20;;
57299;SDS011;43148;50.966;18.198;2023-11-21T14:13:57;4.90;;;4.60;;
57299;SDS011;43148;50.966;18.198;2023-11-21T14:23:52;6.30;;;6.00;;
57299;SDS011;43148;50.966;18.198;2023-11-21T14:33:42;7.50;;;7.10;;
57299;SDS011;43148;50.966;18.198;2023-11-21T14:43:36;5.60;;;5.20;;
57299;SDS011;43148;50.966;18.198;2023-11-21T14:53:41;3.00;;;2.90;;
57299;SDS011;43148;50.966;18.198;2023-11-21T15:04:13;8.50;;;7.90;;
57299;SDS011;43148;50.966;18.198;2023-11-21T15:14:46;10.50;;;9.70;;
57299;SDS011;43148;50.966;18.198;2023-11-21T15:24:42;12.40;;;11.40;;
57299;SDS011;43148;50.966;18.198;2023-11-21T15:41:53;8.00;;;7.40;;
57299;SDS011;43148;50.966;18.198;2023-11-21T15:51:39;12.60;;;11.90;;
57299;SDS011;43148;50.966;18.198;2023-11-21T16:01:27;13.50;;;12.10;;
57299;SDS011;43148;50.966;18.198;2023-11-21T16:11:10;14.10;;;12.60;;
57299;SDS011;43148;50.966;18.198;2023-11-21T16:20:52;14.80;;;13.60;;
57299;SDS011;43148;50.966;18.198;2023-11-21T16:30:34;11.50;;;10.80;;
57299;SDS011;43148;50.966;18.198;2023-11-21T16:40:22;8.50;;;7.70;;
57299;SDS011;43148;50.966;18.198;2023-11-21T16:50:07;13.20;;;12.50;;
57299;SDS011;43148;50.966;18.198;2023-11-21T16:59:50;13.60;;;12.90;;
57299;SDS011;43148;50.966;18.198;2023-11-21T17:09:36;8.30;;;7.90;;
57299;SDS011;43148;50.966;18.198;2023-11-21T17:19:22;16.70;;;15.50;;
57299;SDS011;43148;50.966;18.198;2023-11-21T17:29:06;14.30;;;13.30;;
57299;SDS011;43148;50.966;18.198;2023-11-21T17:38:53;14.20;;;13.20;;
57299;SDS011;43148;50.966;18.198;2023-11-21T17:48:49;16.20;;;14.80;;
57299;SDS011;43148;50.966;18.198;2023-11-21T17:58:38;11.90;;;11.20;;
57299;SDS011;43148;50.966;18.198;2023-11-21T18:22:56;11.90;;;11.20;;
57299;SDS011;43148;50.966;18.198;2023-11-21T18:32:40;17.40;;;16.10;;
57299;SDS011;43148;50.966;18.198;2023-11-21T18:42:23;14.50;;;13.60;;
57299;SDS011;43148;50.966;18.198;2023-11-21T18:52:07;12.00;;;11.00;;
57299;SDS011;43148;50.966;18.198;2023-11-21T19:02:01;14.50;;;13.60;;
57299;SDS011;43148;50.966;18.198;2023-11-21T19:11:49;12.70;;;11.90;;
57299;SDS011;43148;50.966;18.198;2023-11-21T19:21:38;15.20;;;14.10;;
57299;SDS011;43148;50.966;18.198;2023-11-21T19:31:22;19.90;;;18.20;;
57299;SDS011;43148;50.966;18.198;2023-11-21T19:41:20;19.00;;;17.50;;
57299;SDS011;43148;50.966;18.198;2023-11-21T19:51:06;20.80;;;19.10;;
57299;SDS011;43148;50.966;18.198;2023-11-21T20:08:09;20.90;;;19.30;;
57299;SDS011;43148;50.966;18.198;2023-11-21T20:17:55;20.90;;;19.40;;
57299;SDS011;43148;50.966;18.198;2023-11-21T20:27:44;20.60;;;19.20;;
57299;SDS011;43148;50.966;18.198;2023-11-21T20:37:32;15.70;;;14.60;;
57299;SDS011;43148;50.966;18.198;2023-11-21T20:47:26;20.70;;;18.80;;
57299;SDS011;43148;50.966;18.198;2023-11-21T20:57:20;18.20;;;16.90;;
57299;SDS011;43148;50.966;18.198;2023-11-21T21:07:04;20.60;;;18.90;;
57299;SDS011;43148;50.966;18.198;2023-11-21T21:16:54;20.50;;;18.70;;
57299;SDS011;43148;50.966;18.198;2023-11-21T21:33:58;21.10;;;19.30;;
57299;SDS011;43148;50.966;18.198;2023-11-21T21:43:43;23.30;;;17.80;;
57299;SDS011;43148;50.966;18.198;2023-11-21T22:00:45;22.50;;;20.50;;
57299;SDS011;43148;50.966;18.198;2023-11-21T22:10:29;21.70;;;19.90;;
57299;SDS011;43148;50.966;18.198;2023-11-21T22:20:12;21.10;;;19.50;;
57299;SDS011;43148;50.966;18.198;2023-11-21T22:29:58;10.60;;;9.90;;
57299;SDS011;43148;50.966;18.198;2023-11-21T22:39:40;25.10;;;22.50;;
57299;SDS011;43148;50.966;18.198;2023-11-21T22:49:27;21.10;;;19.60;;
57299;SDS011;43148;50.966;18.198;2023-11-21T22:59:16;23.70;;;21.80;;
57299;SDS011;43148;50.966;18.198;2023-11-21T23:09:11;27.10;;;24.80;;
57299;SDS011;43148;50.966;18.198;2023-11-21T23:18:54;25.80;;;23.20;;
57299;SDS011;43148;50.966;18.198;2023-11-21T23:28:43;22.70;;;21.00;;
57299;SDS011;43148;50.966;18.198;2023-11-21T23:38:26;13.40;;;12.50;;
57299;SDS011;43148;50.966;18.198;2023-11-21T23:48:10;15.60;;;14.40;;
57299;SDS011;43148;50.966;18.198;2023-11-21T23:57:54;26.40;;;23.90;;
